sensor_id;sensor_type;location;lat;lon;timestamp;P1;durP1;ratioP1;P2;durP2;ratioP2
48361;SDS011;34510;51.888;5.670;2023-07-02T00:03:50;989.97;;;892.80;;
48361;SDS011;34510;51.888;5.670;2023-07-02T00:08:52;986.70;;;889.95;;
48361;SDS011;34510;51.888;5.670;2023-07-02T00:13:54;983.42;;;886.90;;
48361;SDS011;34510;51.888;5.670;2023-07-02T00:18:56;1004.80;;;906.78;;
48361;SDS011;34510;51.888;5.670;2023-07-02T00:23:59;982.17;;;885.47;;
48361;SDS011;34510;51.888;5.670;2023-07-02T00:29:01;1003.25;;;905.25;;
48361;SDS011;34510;51.888;5.670;2023-07-02T00:34:06;986.20;;;889.05;;
48361;SDS011;34510;51.888;5.670;2023-07-02T00:39:08;980.25;;;883.78;;
48361;SDS011;34510;51.888;5.670;2023-07-02T00:44:10;980.15;;;883.67;;
48361;SDS011;34510;51.888;5.670;2023-07-02T00:49:12;973.92;;;877.22;;
48361;SDS011;34510;51.888;5.670;2023-07-02T00:54:14;963.03;;;867.42;;
48361;SDS011;34510;51.888;5.670;2023-07-02T00:59:16;957.60;;;861.83;;
48361;SDS011;34510;51.888;5.670;2023-07-02T01:04:18;947.13;;;851.38;;
48361;SDS011;34510;51.888;5.670;2023-07-02T01:09:20;933.50;;;838.55;;
48361;SDS011;34510;51.888;5.670;2023-07-02T01:14:27;933.92;;;839.20;;
48361;SDS011;34510;51.888;5.670;2023-07-02T01:19:49;937.50;;;842.13;;
48361;SDS011;34510;51.888;5.670;2023-07-02T01:24:55;929.97;;;835.67;;
48361;SDS011;34510;51.888;5.670;2023-07-02T01:29:57;938.08;;;842.80;;
48361;SDS011;34510;51.888;5.670;2023-07-02T01:35:00;948.47;;;853.88;;
48361;SDS011;34510;51.888;5.670;2023-07-02T01:40:05;945.08;;;849.55;;
48361;SDS011;34510;51.888;5.670;2023-07-02T01:45:08;929.55;;;835.47;;
48361;SDS011;34510;51.888;5.670;2023-07-02T01:50:11;922.05;;;828.63;;
48361;SDS011;34510;51.888;5.670;2023-07-02T01:55:13;929.58;;;835.33;;
48361;SDS011;34510;51.888;5.670;2023-07-02T02:00:15;675.10;;;612.75;;
48361;SDS011;34510;51.888;5.670;2023-07-02T02:05:17;884.63;;;791.85;;
48361;SDS011;34510;51.888;5.670;2023-07-02T02:10:22;868.33;;;776.35;;
48361;SDS011;34510;51.888;5.670;2023-07-02T02:15:24;890.13;;;797.22;;
48361;SDS011;34510;51.888;5.670;2023-07-02T02:20:26;880.78;;;788.22;;
48361;SDS011;34510;51.888;5.670;2023-07-02T02:25:28;897.33;;;803.45;;
48361;SDS011;34510;51.888;5.670;2023-07-02T02:30:30;908.53;;;813.65;;
48361;SDS011;34510;51.888;5.670;2023-07-02T02:35:32;896.58;;;802.70;;
48361;SDS011;34510;51.888;5.670;2023-07-02T02:40:34;895.92;;;802.25;;
48361;SDS011;34510;51.888;5.670;2023-07-02T02:45:40;897.15;;;803.53;;
48361;SDS011;34510;51.888;5.670;2023-07-02T02:50:42;897.00;;;802.95;;
48361;SDS011;34510;51.888;5.670;2023-07-02T02:55:44;899.25;;;805.90;;
48361;SDS011;34510;51.888;5.670;2023-07-02T03:00:46;901.88;;;807.95;;
48361;SDS011;34510;51.888;5.670;2023-07-02T03:05:50;897.55;;;803.88;;
48361;SDS011;34510;51.888;5.670;2023-07-02T03:10:52;893.60;;;800.03;;
48361;SDS011;34510;51.888;5.670;2023-07-02T03:15:54;899.08;;;805.17;;
48361;SDS011;34510;51.888;5.670;2023-07-02T03:20:56;885.45;;;792.70;;
48361;SDS011;34510;51.888;5.670;2023-07-02T03:25:58;896.80;;;803.65;;
48361;SDS011;34510;51.888;5.670;2023-07-02T03:31:00;894.00;;;800.83;;
48361;SDS011;34510;51.888;5.670;2023-07-02T03:36:02;916.67;;;821.97;;
48361;SDS011;34510;51.888;5.670;2023-07-02T03:41:04;898.58;;;805.78;;
48361;SDS011;34510;51.888;5.670;2023-07-02T03:46:06;893.83;;;801.05;;
48361;SDS011;34510;51.888;5.670;2023-07-02T03:51:08;906.53;;;813.22;;
48361;SDS011;34510;51.888;5.670;2023-07-02T03:56:10;911.65;;;817.60;;
48361;SDS011;34510;51.888;5.670;2023-07-02T04:01:12;908.72;;;814.95;;
48361;SDS011;34510;51.888;5.670;2023-07-02T04:06:17;891.53;;;798.47;;
48361;SDS011;34510;51.888;5.670;2023-07-02T04:11:19;895.95;;;803.05;;
48361;SDS011;34510;51.888;5.670;2023-07-02T04:16:21;874.60;;;783.42;;
48361;SDS011;34510;51.888;5.670;2023-07-02T04:21:23;899.30;;;805.75;;
48361;SDS011;34510;51.888;5.670;2023-07-02T04:26:25;902.38;;;808.78;;
48361;SDS011;34510;51.888;5.670;2023-07-02T04:31:48;899.25;;;806.25;;
48361;SDS011;34510;51.888;5.670;2023-07-02T04:36:50;892.70;;;799.92;;
48361;SDS011;34510;51.888;5.670;2023-07-02T04:41:54;890.13;;;797.47;;
48361;SDS011;34510;51.888;5.670;2023-07-02T04:47:00;912.40;;;818.60;;
48361;SDS011;34510;51.888;5.670;2023-07-02T04:52:03;903.08;;;809.85;;
48361;SDS011;34510;51.888;5.670;2023-07-02T04:57:05;906.72;;;813.58;;
48361;SDS011;34510;51.888;5.670;2023-07-02T05:02:07;892.92;;;800.97;;
48361;SDS011;34510;51.888;5.670;2023-07-02T05:07:09;890.63;;;798.65;;
48361;SDS011;34510;51.888;5.670;2023-07-02T05:12:11;824.40;;;735.50;;
48361;SDS011;34510;51.888;5.670;2023-07-02T05:17:13;922.22;;;837.08;;
48361;SDS011;34510;51.888;5.670;2023-07-02T05:22:18;869.85;;;777.85;;
48361;SDS011;34510;51.888;5.670;2023-07-02T05:27:20;899.60;;;829.25;;
48361;SDS011;34510;51.888;5.670;2023-07-02T05:32:22;909.08;;;824.20;;
48361;SDS011;34510;51.888;5.670;2023-07-02T05:37:24;864.83;;;775.53;;
48361;SDS011;34510;51.888;5.670;2023-07-02T05:42:26;882.38;;;791.58;;
48361;SDS011;34510;51.888;5.670;2023-07-02T05:47:28;899.78;;;808.72;;
48361;SDS011;34510;51.888;5.670;2023-07-02T05:52:31;881.50;;;791.47;;
48361;SDS011;34510;51.888;5.670;2023-07-02T05:57:33;939.40;;;843.88;;
48361;SDS011;34510;51.888;5.670;2023-07-02T06:02:35;952.80;;;857.05;;
48361;SDS011;34510;51.888;5.670;2023-07-02T06:07:37;967.47;;;871.40;;
48361;SDS011;34510;51.888;5.670;2023-07-02T06:12:40;960.00;;;863.90;;
48361;SDS011;34510;51.888;5.670;2023-07-02T06:17:43;966.28;;;869.33;;
48361;SDS011;34510;51.888;5.670;2023-07-02T06:22:45;966.33;;;870.53;;
48361;SDS011;34510;51.888;5.670;2023-07-02T06:27:47;970.78;;;874.25;;
48361;SDS011;34510;51.888;5.670;2023-07-02T06:32:49;979.28;;;883.35;;
48361;SDS011;34510;51.888;5.670;2023-07-02T06:37:51;991.65;;;894.63;;
48361;SDS011;34510;51.888;5.670;2023-07-02T06:42:53;991.38;;;894.63;;
48361;SDS011;34510;51.888;5.670;2023-07-02T06:47:55;978.95;;;882.90;;
48361;SDS011;34510;51.888;5.670;2023-07-02T06:52:57;980.53;;;884.33;;
48361;SDS011;34510;51.888;5.670;2023-07-02T06:57:59;996.00;;;899.10;;
48361;SDS011;34510;51.888;5.670;2023-07-02T07:03:02;981.50;;;885.40;;
48361;SDS011;34510;51.888;5.670;2023-07-02T07:08:05;1015.58;;;917.63;;
48361;SDS011;34510;51.888;5.670;2023-07-02T07:13:07;1020.83;;;922.47;;
48361;SDS011;34510;51.888;5.670;2023-07-02T07:18:12;1000.58;;;903.33;;
48361;SDS011;34510;51.888;5.670;2023-07-02T07:23:16;996.95;;;899.65;;
48361;SDS011;34510;51.888;5.670;2023-07-02T07:28:19;1006.50;;;907.35;;
48361;SDS011;34510;51.888;5.670;2023-07-02T07:33:22;1001.78;;;904.72;;
48361;SDS011;34510;51.888;5.670;2023-07-02T07:38:24;1014.83;;;916.38;;
48361;SDS011;34510;51.888;5.670;2023-07-02T07:43:26;1014.25;;;915.90;;
48361;SDS011;34510;51.888;5.670;2023-07-02T07:48:28;1016.45;;;918.85;;
48361;SDS011;34510;51.888;5.670;2023-07-02T07:53:30;1014.67;;;916.72;;
48361;SDS011;34510;51.888;5.670;2023-07-02T07:58:32;1007.15;;;910.28;;
48361;SDS011;34510;51.888;5.670;2023-07-02T08:03:36;1033.68;;;934.72;;
48361;SDS011;34510;51.888;5.670;2023-07-02T08:08:39;1045.18;;;946.00;;
48361;SDS011;34510;51.888;5.670;2023-07-02T08:13:41;1044.13;;;944.95;;
48361;SDS011;34510;51.888;5.670;2023-07-02T08:18:44;1043.88;;;945.13;;
48361;SDS011;34510;51.888;5.670;2023-07-02T08:23:46;1032.70;;;934.85;;
48361;SDS011;34510;51.888;5.670;2023-07-02T08:28:48;1042.18;;;943.13;;
48361;SDS011;34510;51.888;5.670;2023-07-02T08:33:50;1038.40;;;939.63;;
48361;SDS011;34510;51.888;5.670;2023-07-02T08:38:52;1032.88;;;934.50;;
48361;SDS011;34510;51.888;5.670;2023-07-02T08:43:55;1059.38;;;959.42;;
48361;SDS011;34510;51.888;5.670;2023-07-02T08:48:57;1055.13;;;955.03;;
48361;SDS011;34510;51.888;5.670;2023-07-02T08:54:00;1056.57;;;956.95;;
48361;SDS011;34510;51.888;5.670;2023-07-02T08:59:03;1060.35;;;960.80;;
48361;SDS011;34510;51.888;5.670;2023-07-02T09:04:14;1061.53;;;961.72;;
48361;SDS011;34510;51.888;5.670;2023-07-02T09:09:17;1077.88;;;976.90;;
48361;SDS011;34510;51.888;5.670;2023-07-02T09:19:27;1081.75;;;980.45;;
48361;SDS011;34510;51.888;5.670;2023-07-02T09:24:30;1084.72;;;983.13;;
48361;SDS011;34510;51.888;5.670;2023-07-02T09:29:33;1078.88;;;978.20;;
48361;SDS011;34510;51.888;5.670;2023-07-02T09:34:36;1091.10;;;989.47;;
48361;SDS011;34510;51.888;5.670;2023-07-02T09:39:39;1086.60;;;985.28;;
48361;SDS011;34510;51.888;5.670;2023-07-02T09:44:41;1092.93;;;991.15;;
48361;SDS011;34510;51.888;5.670;2023-07-02T09:49:49;1092.07;;;990.22;;
48361;SDS011;34510;51.888;5.670;2023-07-02T09:59:53;1059.72;;;959.97;;
48361;SDS011;34510;51.888;5.670;2023-07-02T10:04:55;1073.05;;;972.15;;
48361;SDS011;34510;51.888;5.670;2023-07-02T10:09:58;1054.93;;;955.13;;
48361;SDS011;34510;51.888;5.670;2023-07-02T10:15:01;1061.32;;;961.47;;
48361;SDS011;34510;51.888;5.670;2023-07-02T10:20:03;1052.03;;;952.45;;
48361;SDS011;34510;51.888;5.670;2023-07-02T10:30:12;1061.03;;;960.78;;
48361;SDS011;34510;51.888;5.670;2023-07-02T10:35:14;1058.65;;;959.28;;
48361;SDS011;34510;51.888;5.670;2023-07-02T10:40:18;1066.85;;;967.13;;
48361;SDS011;34510;51.888;5.670;2023-07-02T10:45:20;1076.63;;;976.38;;
48361;SDS011;34510;51.888;5.670;2023-07-02T10:50:36;1087.38;;;986.70;;
48361;SDS011;34510;51.888;5.670;2023-07-02T10:55:38;1101.00;;;997.60;;
48361;SDS011;34510;51.888;5.670;2023-07-02T11:00:50;1105.47;;;999.47;;
48361;SDS011;34510;51.888;5.670;2023-07-02T11:05:53;1123.72;;;999.90;;
48361;SDS011;34510;51.888;5.670;2023-07-02T11:11:06;1115.10;;;999.90;;
48361;SDS011;34510;51.888;5.670;2023-07-02T11:21:22;1107.63;;;999.25;;
48361;SDS011;34510;51.888;5.670;2023-07-02T11:26:24;1113.10;;;999.90;;
48361;SDS011;34510;51.888;5.670;2023-07-02T11:31:36;1105.28;;;999.13;;
48361;SDS011;34510;51.888;5.670;2023-07-02T11:36:38;1109.78;;;999.90;;
48361;SDS011;34510;51.888;5.670;2023-07-02T11:41:44;1115.03;;;999.90;;
48361;SDS011;34510;51.888;5.670;2023-07-02T11:46:47;1119.35;;;999.90;;
48361;SDS011;34510;51.888;5.670;2023-07-02T11:51:50;1130.68;;;999.90;;
48361;SDS011;34510;51.888;5.670;2023-07-02T11:56:52;1157.00;;;999.90;;
48361;SDS011;34510;51.888;5.670;2023-07-02T12:01:53;1144.90;;;999.90;;
48361;SDS011;34510;51.888;5.670;2023-07-02T12:06:55;1143.95;;;999.90;;
48361;SDS011;34510;51.888;5.670;2023-07-02T12:11:58;1143.88;;;999.90;;
48361;SDS011;34510;51.888;5.670;2023-07-02T12:17:00;1157.80;;;999.90;;
48361;SDS011;34510;51.888;5.670;2023-07-02T12:22:06;1154.97;;;999.90;;
48361;SDS011;34510;51.888;5.670;2023-07-02T12:27:08;1150.03;;;999.90;;
48361;SDS011;34510;51.888;5.670;2023-07-02T12:32:10;1155.85;;;999.90;;
48361;SDS011;34510;51.888;5.670;2023-07-02T12:37:12;1162.38;;;999.90;;
48361;SDS011;34510;51.888;5.670;2023-07-02T12:42:18;1150.90;;;999.90;;
48361;SDS011;34510;51.888;5.670;2023-07-02T12:47:21;1138.75;;;999.90;;
48361;SDS011;34510;51.888;5.670;2023-07-02T12:52:23;1139.25;;;999.90;;
48361;SDS011;34510;51.888;5.670;2023-07-02T12:57:25;1136.53;;;999.90;;
48361;SDS011;34510;51.888;5.670;2023-07-02T13:02:29;1130.38;;;999.90;;
48361;SDS011;34510;51.888;5.670;2023-07-02T13:07:31;1120.18;;;999.90;;
48361;SDS011;34510;51.888;5.670;2023-07-02T13:12:33;1128.25;;;999.90;;
48361;SDS011;34510;51.888;5.670;2023-07-02T13:17:35;1132.45;;;999.90;;
48361;SDS011;34510;51.888;5.670;2023-07-02T13:22:37;1132.97;;;999.90;;
48361;SDS011;34510;51.888;5.670;2023-07-02T13:27:39;1140.78;;;999.90;;
48361;SDS011;34510;51.888;5.670;2023-07-02T13:32:41;1146.63;;;999.90;;
48361;SDS011;34510;51.888;5.670;2023-07-02T13:37:43;1157.78;;;999.90;;
48361;SDS011;34510;51.888;5.670;2023-07-02T13:42:45;1144.82;;;999.90;;
48361;SDS011;34510;51.888;5.670;2023-07-02T13:47:47;1162.50;;;999.90;;
48361;SDS011;34510;51.888;5.670;2023-07-02T13:52:49;1149.55;;;999.90;;
48361;SDS011;34510;51.888;5.670;2023-07-02T13:57:51;1149.57;;;999.90;;
48361;SDS011;34510;51.888;5.670;2023-07-02T14:02:53;1141.35;;;999.90;;
48361;SDS011;34510;51.888;5.670;2023-07-02T14:07:56;1137.85;;;999.90;;
48361;SDS011;34510;51.888;5.670;2023-07-02T14:12:58;1127.40;;;999.90;;
48361;SDS011;34510;51.888;5.670;2023-07-02T14:18:00;1138.85;;;999.90;;
48361;SDS011;34510;51.888;5.670;2023-07-02T14:23:02;1122.32;;;999.90;;
48361;SDS011;34510;51.888;5.670;2023-07-02T14:28:04;1119.35;;;999.90;;
48361;SDS011;34510;51.888;5.670;2023-07-02T14:33:06;1125.53;;;999.90;;
48361;SDS011;34510;51.888;5.670;2023-07-02T14:38:08;1123.43;;;999.90;;
48361;SDS011;34510;51.888;5.670;2023-07-02T14:43:10;1125.13;;;999.90;;
48361;SDS011;34510;51.888;5.670;2023-07-02T14:48:12;1125.05;;;999.90;;
48361;SDS011;34510;51.888;5.670;2023-07-02T14:53:14;1129.50;;;999.90;;
48361;SDS011;34510;51.888;5.670;2023-07-02T14:58:17;1125.82;;;999.90;;
48361;SDS011;34510;51.888;5.670;2023-07-02T15:03:20;1132.10;;;999.90;;
48361;SDS011;34510;51.888;5.670;2023-07-02T15:08:26;1123.72;;;999.90;;
48361;SDS011;34510;51.888;5.670;2023-07-02T15:13:28;1125.20;;;999.90;;
48361;SDS011;34510;51.888;5.670;2023-07-02T15:18:30;1123.85;;;999.90;;
48361;SDS011;34510;51.888;5.670;2023-07-02T15:23:32;1121.03;;;999.90;;
48361;SDS011;34510;51.888;5.670;2023-07-02T15:28:35;1115.50;;;999.90;;
48361;SDS011;34510;51.888;5.670;2023-07-02T15:33:38;1118.60;;;999.90;;
48361;SDS011;34510;51.888;5.670;2023-07-02T15:38:40;1109.03;;;999.90;;
48361;SDS011;34510;51.888;5.670;2023-07-02T15:43:43;1112.72;;;999.90;;
48361;SDS011;34510;51.888;5.670;2023-07-02T15:48:46;1107.68;;;999.78;;
48361;SDS011;34510;51.888;5.670;2023-07-02T15:53:48;1108.97;;;999.50;;
48361;SDS011;34510;51.888;5.670;2023-07-02T15:58:52;1106.32;;;999.65;;
48361;SDS011;34510;51.888;5.670;2023-07-02T16:03:54;1117.32;;;999.90;;
48361;SDS011;34510;51.888;5.670;2023-07-02T16:08:57;1129.40;;;999.90;;
48361;SDS011;34510;51.888;5.670;2023-07-02T16:13:59;1117.85;;;999.90;;
48361;SDS011;34510;51.888;5.670;2023-07-02T16:19:01;1120.93;;;999.90;;
48361;SDS011;34510;51.888;5.670;2023-07-02T16:24:04;1120.90;;;999.90;;
48361;SDS011;34510;51.888;5.670;2023-07-02T16:29:06;1121.18;;;999.90;;
48361;SDS011;34510;51.888;5.670;2023-07-02T16:34:08;1117.78;;;999.90;;
48361;SDS011;34510;51.888;5.670;2023-07-02T16:39:12;1124.43;;;999.90;;
48361;SDS011;34510;51.888;5.670;2023-07-02T16:44:16;1128.57;;;999.90;;
48361;SDS011;34510;51.888;5.670;2023-07-02T16:49:26;1126.57;;;999.90;;
48361;SDS011;34510;51.888;5.670;2023-07-02T16:54:29;1123.20;;;999.90;;
48361;SDS011;34510;51.888;5.670;2023-07-02T16:59:32;1125.70;;;999.90;;
48361;SDS011;34510;51.888;5.670;2023-07-02T17:04:39;1119.13;;;999.90;;
48361;SDS011;34510;51.888;5.670;2023-07-02T17:09:41;1122.28;;;999.90;;
48361;SDS011;34510;51.888;5.670;2023-07-02T17:14:48;1108.75;;;999.60;;
48361;SDS011;34510;51.888;5.670;2023-07-02T17:19:53;1106.93;;;999.80;;
48361;SDS011;34510;51.888;5.670;2023-07-02T17:24:56;1107.47;;;999.50;;
48361;SDS011;34510;51.888;5.670;2023-07-02T17:30:06;1100.28;;;997.03;;
48361;SDS011;34510;51.888;5.670;2023-07-02T17:35:10;1102.15;;;997.60;;
48361;SDS011;34510;51.888;5.670;2023-07-02T17:40:15;1101.35;;;997.72;;
48361;SDS011;34510;51.888;5.670;2023-07-02T17:45:17;1100.28;;;996.65;;
48361;SDS011;34510;51.888;5.670;2023-07-02T17:50:19;1101.80;;;997.97;;
48361;SDS011;34510;51.888;5.670;2023-07-02T17:55:21;1096.28;;;994.28;;
48361;SDS011;34510;51.888;5.670;2023-07-02T18:00:23;1090.53;;;989.88;;
48361;SDS011;34510;51.888;5.670;2023-07-02T18:05:25;1102.75;;;998.83;;
48361;SDS011;34510;51.888;5.670;2023-07-02T18:10:28;1095.35;;;994.25;;
48361;SDS011;34510;51.888;5.670;2023-07-02T18:15:29;1092.80;;;992.03;;
48361;SDS011;34510;51.888;5.670;2023-07-02T18:20:31;1085.53;;;985.28;;
48361;SDS011;34510;51.888;5.670;2023-07-02T18:25:33;1086.20;;;985.17;;
48361;SDS011;34510;51.888;5.670;2023-07-02T18:30:36;1084.03;;;983.33;;
48361;SDS011;34510;51.888;5.670;2023-07-02T18:35:43;1080.07;;;980.10;;
48361;SDS011;34510;51.888;5.670;2023-07-02T18:40:47;1084.90;;;984.45;;
48361;SDS011;34510;51.888;5.670;2023-07-02T18:45:50;1083.20;;;983.00;;
48361;SDS011;34510;51.888;5.670;2023-07-02T18:50:53;1084.32;;;984.17;;
48361;SDS011;34510;51.888;5.670;2023-07-02T18:55:59;1065.30;;;966.08;;
48361;SDS011;34510;51.888;5.670;2023-07-02T19:01:07;1067.07;;;967.40;;
48361;SDS011;34510;51.888;5.670;2023-07-02T19:06:10;1066.47;;;965.90;;
48361;SDS011;34510;51.888;5.670;2023-07-02T19:11:13;1058.97;;;959.65;;
48361;SDS011;34510;51.888;5.670;2023-07-02T19:16:15;1063.22;;;963.60;;
48361;SDS011;34510;51.888;5.670;2023-07-02T19:21:17;1055.03;;;956.17;;
48361;SDS011;34510;51.888;5.670;2023-07-02T19:26:21;1047.80;;;948.53;;
48361;SDS011;34510;51.888;5.670;2023-07-02T19:31:24;1052.00;;;953.58;;
48361;SDS011;34510;51.888;5.670;2023-07-02T19:36:26;1044.63;;;946.58;;
48361;SDS011;34510;51.888;5.670;2023-07-02T19:41:28;1045.43;;;947.47;;
48361;SDS011;34510;51.888;5.670;2023-07-02T19:46:30;1044.60;;;946.58;;
48361;SDS011;34510;51.888;5.670;2023-07-02T19:51:32;1037.63;;;939.85;;
48361;SDS011;34510;51.888;5.670;2023-07-02T19:56:35;1030.38;;;932.63;;
48361;SDS011;34510;51.888;5.670;2023-07-02T20:01:37;1030.78;;;932.88;;
48361;SDS011;34510;51.888;5.670;2023-07-02T20:06:39;1024.88;;;927.63;;
48361;SDS011;34510;51.888;5.670;2023-07-02T20:11:41;1036.03;;;937.55;;
48361;SDS011;34510;51.888;5.670;2023-07-02T20:16:43;1037.03;;;938.47;;
48361;SDS011;34510;51.888;5.670;2023-07-02T20:21:45;1028.65;;;931.20;;
48361;SDS011;34510;51.888;5.670;2023-07-02T20:26:52;1027.80;;;930.10;;
48361;SDS011;34510;51.888;5.670;2023-07-02T20:31:57;1029.38;;;931.67;;
48361;SDS011;34510;51.888;5.670;2023-07-02T20:36:59;1025.85;;;928.83;;
48361;SDS011;34510;51.888;5.670;2023-07-02T20:42:01;1027.82;;;929.88;;
48361;SDS011;34510;51.888;5.670;2023-07-02T20:47:06;1040.57;;;942.58;;
48361;SDS011;34510;51.888;5.670;2023-07-02T20:52:11;1051.03;;;953.08;;
48361;SDS011;34510;51.888;5.670;2023-07-02T20:57:13;1039.57;;;942.05;;
48361;SDS011;34510;51.888;5.670;2023-07-02T21:02:16;1027.57;;;930.20;;
48361;SDS011;34510;51.888;5.670;2023-07-02T21:07:20;1034.10;;;936.63;;
48361;SDS011;34510;51.888;5.670;2023-07-02T21:12:22;1032.68;;;934.60;;
48361;SDS011;34510;51.888;5.670;2023-07-02T21:17:24;1035.43;;;937.03;;
48361;SDS011;34510;51.888;5.670;2023-07-02T21:22:26;1021.13;;;924.22;;
48361;SDS011;34510;51.888;5.670;2023-07-02T21:27:29;1026.85;;;928.85;;
48361;SDS011;34510;51.888;5.670;2023-07-02T21:32:31;1024.07;;;926.75;;
48361;SDS011;34510;51.888;5.670;2023-07-02T21:37:33;1028.88;;;931.38;;
48361;SDS011;34510;51.888;5.670;2023-07-02T21:42:35;1029.82;;;931.65;;
48361;SDS011;34510;51.888;5.670;2023-07-02T21:47:37;1020.90;;;923.55;;
48361;SDS011;34510;51.888;5.670;2023-07-02T21:52:39;1024.03;;;926.00;;
48361;SDS011;34510;51.888;5.670;2023-07-02T21:57:42;1027.35;;;929.78;;
48361;SDS011;34510;51.888;5.670;2023-07-02T22:02:45;1017.40;;;921.13;;
48361;SDS011;34510;51.888;5.670;2023-07-02T22:07:47;1012.67;;;916.22;;
48361;SDS011;34510;51.888;5.670;2023-07-02T22:12:49;1001.60;;;904.97;;
48361;SDS011;34510;51.888;5.670;2023-07-02T22:17:51;1002.25;;;905.67;;
48361;SDS011;34510;51.888;5.670;2023-07-02T22:22:53;1008.03;;;911.92;;
48361;SDS011;34510;51.888;5.670;2023-07-02T22:27:55;1013.63;;;916.30;;
48361;SDS011;34510;51.888;5.670;2023-07-02T22:32:58;1008.10;;;910.45;;
48361;SDS011;34510;51.888;5.670;2023-07-02T22:38:00;995.42;;;899.78;;
48361;SDS011;34510;51.888;5.670;2023-07-02T22:43:02;1003.33;;;907.05;;
48361;SDS011;34510;51.888;5.670;2023-07-02T22:48:04;1018.13;;;921.00;;
48361;SDS011;34510;51.888;5.670;2023-07-02T22:53:06;1009.40;;;912.55;;
48361;SDS011;34510;51.888;5.670;2023-07-02T22:58:08;985.05;;;889.42;;
48361;SDS011;34510;51.888;5.670;2023-07-02T23:03:10;1014.60;;;917.50;;
48361;SDS011;34510;51.888;5.670;2023-07-02T23:08:12;994.83;;;899.15;;
48361;SDS011;34510;51.888;5.670;2023-07-02T23:13:14;1008.50;;;911.58;;
48361;SDS011;34510;51.888;5.670;2023-07-02T23:18:16;996.50;;;900.00;;
48361;SDS011;34510;51.888;5.670;2023-07-02T23:23:18;986.70;;;891.10;;
48361;SDS011;34510;51.888;5.670;2023-07-02T23:28:20;1000.55;;;904.05;;
48361;SDS011;34510;51.888;5.670;2023-07-02T23:33:22;997.08;;;901.00;;
48361;SDS011;34510;51.888;5.670;2023-07-02T23:38:26;972.63;;;877.58;;
48361;SDS011;34510;51.888;5.670;2023-07-02T23:43:28;965.05;;;870.28;;
48361;SDS011;34510;51.888;5.670;2023-07-02T23:48:30;962.33;;;867.05;;
48361;SDS011;34510;51.888;5.670;2023-07-02T23:53:31;970.45;;;875.22;;
48361;SDS011;34510;51.888;5.670;2023-07-02T23:58:33;956.95;;;861.97;;
